Time;durP1;ratioP1;P1;durP2;ratioP2;P2;SDS_P1;SDS_P2;PMS_P1;PMS_P2;Temp;Humidity;BMP_temperature;BMP_pressure;BME280_temperature;BME280_humidity;BME280_pressure;Samples;Min_cycle;Max_cycle;Signal;HPM_P1;HPM_P2
2022/08/09 00:01:26;;;;;;;3.70;2.70;;;14.50;99.90;;;;;;5035874;28;20041;-69
2022/08/09 00:03:52;;;;;;;4.50;2.67;;;14.70;99.90;;;;;;5036049;28;20045;-69
2022/08/09 00:06:17;;;;;;;3.97;2.85;;;14.70;99.90;;;;;;5036567;28;20124;-69
2022/08/09 00:08:47;;;;;;;4.18;2.60;;;14.70;99.90;;;;;;5018426;28;20041;-69
2022/08/09 00:11:14;;;;;;;4.20;2.72;;;14.80;99.90;;;;;;5035918;28;20049;-69
2022/08/09 00:13:40;;;;;;;3.55;2.30;;;14.80;99.90;;;;;;5035996;28;20103;-69
2022/08/09 00:16:06;;;;;;;4.45;2.72;;;14.80;99.90;;;;;;5036343;28;20041;-69
2022/08/09 00:18:32;;;;;;;4.70;2.80;;;14.80;99.90;;;;;;5036303;28;20047;-69
2022/08/09 00:20:58;;;;;;;3.58;2.65;;;14.80;99.90;;;;;;5035845;28;20084;-69
2022/08/09 00:23:24;;;;;;;3.65;2.95;;;14.80;99.90;;;;;;5019144;28;20095;-69
2022/08/09 00:25:50;;;;;;;4.07;3.08;;;14.80;99.90;;;;;;5035721;28;20474;-69
2022/08/09 00:28:15;;;;;;;3.28;2.80;;;14.70;99.90;;;;;;5035379;28;20481;-69
2022/08/09 00:30:41;;;;;;;5.15;2.90;;;14.80;99.90;;;;;;5035877;28;20045;-69
2022/08/09 00:33:07;;;;;;;4.13;3.10;;;14.70;99.90;;;;;;5036128;28;20053;-69
2022/08/09 00:35:33;;;;;;;5.60;2.95;;;14.70;99.90;;;;;;5035235;28;20366;-69
2022/08/09 00:37:59;;;;;;;5.38;2.90;;;14.70;99.90;;;;;;5035141;28;20037;-69
2022/08/09 00:40:24;;;;;;;3.80;2.72;;;14.70;99.90;;;;;;5035522;28;20042;-69
2022/08/09 00:42:50;;;;;;;4.50;3.20;;;14.70;99.90;;;;;;5035118;28;20068;-69
2022/08/09 00:45:16;;;;;;;4.63;2.78;;;14.60;99.90;;;;;;5017692;28;20183;-69
2022/08/09 00:47:41;;;;;;;3.63;2.70;;;14.60;99.90;;;;;;5035435;28;20052;-69
2022/08/09 00:50:07;;;;;;;4.47;2.80;;;14.60;99.90;;;;;;5035343;28;20052;-69
2022/08/09 00:52:33;;;;;;;6.18;2.88;;;14.60;99.90;;;;;;5035607;28;20045;-69
2022/08/09 00:55:00;;;;;;;4.30;2.58;;;14.50;99.90;;;;;;5018513;28;20037;-69
2022/08/09 00:57:27;;;;;;;3.50;2.75;;;14.50;99.90;;;;;;5035193;28;20045;-69
2022/08/09 00:59:53;;;;;;;3.90;2.90;;;14.40;99.90;;;;;;5017752;28;20057;-69
2022/08/09 01:02:26;;;;;;;4.28;2.83;;;14.40;99.90;;;;;;5035610;28;20045;-69
2022/08/09 01:05:08;;;;;;;4.03;2.55;;;14.40;99.90;;;;;;5035854;28;20385;-69
2022/08/09 01:08:05;;;;;;;4.30;2.60;;;14.40;99.90;;;;;;5035241;28;20095;-69
2022/08/09 01:10:50;;;;;;;4.55;2.95;;;14.40;99.90;;;;;;5034827;28;20045;-69
2022/08/09 01:13:51;;;;;;;3.50;2.67;;;14.40;99.90;;;;;;5035221;28;20091;-69
2022/08/09 01:16:22;;;;;;;4.20;2.70;;;14.40;99.90;;;;;;5035576;28;20481;-69
2022/08/09 01:18:50;;;;;;;3.85;2.80;;;14.40;99.90;;;;;;5034762;28;20124;-69
2022/08/09 01:21:35;;;;;;;6.30;2.65;;;14.40;99.90;;;;;;5034571;28;20042;-69
2022/08/09 01:24:17;;;;;;;4.20;2.53;;;14.40;99.90;;;;;;5034710;28;20049;-69
2022/08/09 01:26:45;;;;;;;3.80;2.60;;;14.30;99.90;;;;;;5035187;28;20041;-69
2022/08/09 01:29:13;;;;;;;3.28;2.30;;;14.30;99.90;;;;;;5034548;28;20053;-69
2022/08/09 01:31:42;;;;;;;5.28;3.28;;;14.30;99.90;;;;;;5034522;28;20033;-69
2022/08/09 01:34:13;;;;;;;5.85;3.10;;;14.30;99.90;;;;;;5034493;28;20386;-69
2022/08/09 01:36:41;;;;;;;5.40;3.10;;;14.30;99.90;;;;;;5035001;28;20052;-69
2022/08/09 01:39:07;;;;;;;4.55;2.70;;;14.30;99.90;;;;;;5016811;28;20041;-69
2022/08/09 01:41:35;;;;;;;3.60;2.65;;;14.30;99.90;;;;;;5034379;28;20046;-69
2022/08/09 01:44:03;;;;;;;3.47;2.75;;;14.20;99.90;;;;;;5034268;28;20122;-69
2022/08/09 01:46:39;;;;;;;3.95;2.70;;;14.20;99.90;;;;;;5035074;28;20183;-69
2022/08/09 01:49:08;;;;;;;4.70;3.03;;;14.10;99.90;;;;;;5034258;28;20139;-69
2022/08/09 01:51:35;;;;;;;4.90;3.20;;;14.10;99.90;;;;;;5034008;28;20764;-69
2022/08/09 01:54:03;;;;;;;5.38;3.38;;;14.20;99.90;;;;;;5034165;28;20423;-69
2022/08/09 01:56:30;;;;;;;6.38;3.40;;;14.20;99.90;;;;;;5034112;28;20501;-69
2022/08/09 01:59:00;;;;;;;5.32;3.30;;;14.20;99.90;;;;;;5034011;28;20045;-69
2022/08/09 02:01:27;;;;;;;6.50;3.58;;;14.20;99.90;;;;;;5033966;28;20371;-69
2022/08/09 02:03:55;;;;;;;4.78;3.22;;;14.20;99.90;;;;;;5016016;28;20049;-69
2022/08/09 02:09:09;;;;;;;4.15;3.05;;;14.20;99.90;;;;;;5034289;28;20060;-69
2022/08/09 02:11:34;;;;;;;5.20;3.50;;;14.20;99.90;;;;;;5016178;28;20091;-69
2022/08/09 02:14:06;;;;;;;4.20;2.90;;;14.20;99.90;;;;;;5033381;28;20050;-69
2022/08/09 02:16:36;;;;;;;5.47;3.15;;;14.20;99.90;;;;;;5016245;28;20046;-69
2022/08/09 02:19:02;;;;;;;5.10;3.20;;;14.20;99.90;;;;;;5033693;28;20075;-69
2022/08/09 02:21:32;;;;;;;4.40;3.05;;;14.20;99.90;;;;;;5015974;28;20053;-69
2022/08/09 02:24:01;;;;;;;6.03;2.88;;;14.10;99.90;;;;;;5000179;28;20088;-69
2022/08/09 02:26:31;;;;;;;4.15;3.05;;;14.10;99.90;;;;;;5034359;28;20171;-69
2022/08/09 02:29:01;;;;;;;4.63;3.00;;;14.10;99.90;;;;;;5033708;28;20132;-69
2022/08/09 02:31:34;;;;;;;5.07;3.28;;;14.10;99.90;;;;;;5033981;28;20088;-69
2022/08/09 02:34:06;;;;;;;4.50;2.78;;;14.10;99.90;;;;;;5033541;28;20106;-69
2022/08/09 02:36:39;;;;;;;4.05;3.13;;;14.10;99.90;;;;;;5033696;28;20041;-69
2022/08/09 02:39:07;;;;;;;3.97;2.70;;;14.10;99.90;;;;;;5034161;28;20065;-69
2022/08/09 02:41:43;;;;;;;3.70;2.70;;;14.10;99.90;;;;;;5033388;28;20038;-69
2022/08/09 02:44:13;;;;;;;4.30;2.95;;;14.00;99.90;;;;;;5034187;28;20056;-69
2022/08/09 02:46:40;;;;;;;3.53;2.70;;;13.90;99.90;;;;;;5033354;28;20041;-69
2022/08/09 02:49:11;;;;;;;3.42;2.40;;;13.80;99.90;;;;;;5033596;28;20119;-69
2022/08/09 02:51:40;;;;;;;4.00;2.90;;;13.70;99.90;;;;;;5034039;28;20069;-69
2022/08/09 02:54:09;;;;;;;3.60;2.60;;;13.70;99.90;;;;;;5033191;28;20044;-69
2022/08/09 02:56:36;;;;;;;3.90;2.60;;;13.60;99.90;;;;;;5015831;28;20049;-69
2022/08/09 02:59:04;;;;;;;3.75;2.30;;;13.60;99.90;;;;;;5033181;28;20086;-69
2022/08/09 03:01:31;;;;;;;3.70;2.40;;;13.60;99.90;;;;;;5033716;28;20045;-69
2022/08/09 03:03:59;;;;;;;4.05;2.33;;;13.60;99.90;;;;;;5033187;28;20538;-69
2022/08/09 03:06:27;;;;;;;6.00;3.10;;;13.60;99.90;;;;;;5015514;28;20038;-69
2022/08/09 03:08:54;;;;;;;3.53;2.10;;;13.60;99.90;;;;;;5033054;28;20489;-69
2022/08/09 03:11:21;;;;;;;3.40;2.40;;;13.50;99.90;;;;;;5033014;28;20042;-69
2022/08/09 03:13:48;;;;;;;3.65;2.25;;;13.50;99.90;;;;;;5033049;28;20394;-69
2022/08/09 03:16:17;;;;;;;3.00;2.25;;;13.60;99.90;;;;;;5035507;28;20041;-69
2022/08/09 03:18:46;;;;;;;4.25;2.20;;;13.60;99.90;;;;;;5037183;28;20048;-69
2022/08/09 03:21:14;;;;;;;3.53;2.38;;;13.50;99.90;;;;;;5036938;28;20540;-69
2022/08/09 03:23:45;;;;;;;3.47;2.50;;;13.50;99.90;;;;;;5036887;28;20080;-69
2022/08/09 03:26:14;;;;;;;3.10;2.08;;;13.50;99.90;;;;;;5037084;28;20052;-69
2022/08/09 03:28:42;;;;;;;3.75;2.22;;;13.50;99.90;;;;;;5036478;28;20084;-69
2022/08/09 03:31:09;;;;;;;2.78;1.95;;;13.50;99.90;;;;;;5037163;28;20103;-69
2022/08/09 03:33:36;;;;;;;3.72;2.17;;;13.50;99.90;;;;;;5037202;28;20413;-69
2022/08/09 03:36:02;;;;;;;4.57;2.30;;;13.50;99.90;;;;;;5036876;28;20054;-69
2022/08/09 03:38:29;;;;;;;3.20;2.00;;;13.50;99.90;;;;;;5037046;28;20048;-69
2022/08/09 03:40:55;;;;;;;4.25;2.20;;;13.40;99.90;;;;;;5036651;28;20049;-69
2022/08/09 03:43:20;;;;;;;3.40;2.20;;;13.40;99.90;;;;;;5036541;28;20049;-69
2022/08/09 03:45:46;;;;;;;3.13;2.20;;;13.40;99.90;;;;;;5036809;28;20073;-69
2022/08/09 03:48:12;;;;;;;3.00;2.08;;;13.40;99.90;;;;;;5019075;28;20454;-69
2022/08/09 03:50:39;;;;;;;4.07;2.17;;;13.40;99.90;;;;;;5036306;28;20084;-69
2022/08/09 03:53:08;;;;;;;3.67;2.20;;;13.30;99.90;;;;;;5018951;28;20048;-69
2022/08/09 03:55:34;;;;;;;3.58;2.15;;;13.30;99.90;;;;;;5036387;28;20050;-69
2022/08/09 03:58:00;;;;;;;4.57;2.35;;;13.20;99.90;;;;;;5035979;28;20501;-68
2022/08/09 04:00:26;;;;;;;3.20;2.05;;;13.20;99.90;;;;;;5036220;28;20128;-69
2022/08/09 04:02:54;;;;;;;6.15;1.88;;;13.10;99.90;;;;;;5018388;28;20033;-68
2022/08/09 04:05:20;;;;;;;3.70;1.90;;;13.10;99.90;;;;;;5035512;28;20199;-68
2022/08/09 04:07:46;;;;;;;3.00;1.85;;;13.00;99.90;;;;;;5036318;28;20347;-69
2022/08/09 04:10:13;;;;;;;3.00;1.88;;;13.10;99.90;;;;;;5035833;28;20415;-69
2022/08/09 04:12:45;;;;;;;2.88;1.58;;;13.00;99.90;;;;;;5035977;28;20504;-68
2022/08/09 04:15:13;;;;;;;4.68;2.90;;;13.00;99.90;;;;;;5035847;28;20049;-69
2022/08/09 04:17:40;;;;;;;4.68;2.90;;;13.00;99.90;;;;;;5035890;28;20080;-68
2022/08/09 04:20:07;;;;;;;5.95;2.53;;;13.00;99.90;;;;;;5035876;28;20052;-69
2022/08/09 04:22:34;;;;;;;24.67;3.70;;;13.00;99.90;;;;;;5036507;28;20072;-69
2022/08/09 04:25:00;;;;;;;4.78;2.47;;;13.00;99.90;;;;;;5035779;28;20077;-69
2022/08/09 04:27:26;;;;;;;7.80;2.17;;;13.10;99.90;;;;;;5035525;28;20043;-68
2022/08/09 04:29:52;;;;;;;5.82;2.30;;;13.10;99.90;;;;;;5035923;28;20061;-69
2022/08/09 04:32:18;;;;;;;3.03;1.92;;;13.10;99.90;;;;;;5017900;28;20363;-69
2022/08/09 04:34:43;;;;;;;3.70;1.90;;;13.10;99.90;;;;;;5001502;28;20056;-69
2022/08/09 04:37:09;;;;;;;4.22;2.15;;;13.10;99.90;;;;;;5035526;28;20056;-69
2022/08/09 04:39:35;;;;;;;3.03;1.85;;;13.10;99.90;;;;;;5035500;28;20049;-69
2022/08/09 04:42:01;;;;;;;3.47;2.10;;;13.10;99.90;;;;;;5035546;28;20454;-68
2022/08/09 04:44:26;;;;;;;3.83;1.98;;;13.10;99.90;;;;;;5018766;28;20374;-69
2022/08/09 04:46:52;;;;;;;5.25;1.90;;;13.20;99.90;;;;;;5035324;28;20041;-69
2022/08/09 04:49:18;;;;;;;3.55;1.88;;;13.20;99.90;;;;;;5018259;28;20052;-69
2022/08/09 04:51:44;;;;;;;4.38;1.85;;;13.20;99.90;;;;;;5017895;28;20098;-69
2022/08/09 04:54:09;;;;;;;2.70;1.77;;;13.30;99.90;;;;;;5035251;28;20219;-69
2022/08/09 04:56:35;;;;;;;3.92;1.90;;;13.30;99.90;;;;;;5035170;28;20037;-69
2022/08/09 04:59:01;;;;;;;6.13;2.05;;;13.30;99.90;;;;;;5035183;28;20060;-69
2022/08/09 05:01:26;;;;;;;5.07;2.00;;;13.40;99.90;;;;;;5035109;28;20038;-68
2022/08/09 05:03:52;;;;;;;3.10;1.98;;;13.40;99.90;;;;;;5035063;28;20363;-68
2022/08/09 05:06:18;;;;;;;6.55;2.28;;;13.40;99.90;;;;;;5035031;28;20153;-68
2022/08/09 05:08:44;;;;;;;2.72;1.75;;;13.40;99.90;;;;;;5035171;28;20041;-69
2022/08/09 05:11:09;;;;;;;8.40;2.38;;;13.50;99.90;;;;;;5034865;28;20049;-69
2022/08/09 05:13:35;;;;;;;4.57;2.00;;;13.50;99.90;;;;;;5035385;28;20533;-69
2022/08/09 05:16:01;;;;;;;3.85;1.98;;;13.50;99.90;;;;;;5034823;28;20037;-69
2022/08/09 05:18:32;;;;;;;3.10;2.00;;;13.60;99.90;;;;;;5035335;28;20462;-69
2022/08/09 05:20:58;;;;;;;3.13;1.95;;;13.70;99.90;;;;;;5017615;28;20053;-69
2022/08/09 05:23:24;;;;;;;3.47;2.15;;;13.80;99.90;;;;;;5034981;28;20052;-69
2022/08/09 05:25:50;;;;;;;3.47;2.20;;;13.80;99.90;;;;;;5034654;28;20049;-69
2022/08/09 05:28:16;;;;;;;2.88;2.00;;;14.00;99.90;;;;;;5017340;28;20045;-69
2022/08/09 05:30:43;;;;;;;2.78;1.92;;;14.00;99.90;;;;;;5034847;28;20057;-69
2022/08/09 05:33:09;;;;;;;2.97;2.00;;;14.10;99.90;;;;;;5034607;28;20052;-68
2022/08/09 05:35:35;;;;;;;2.80;2.00;;;14.20;99.90;;;;;;5035223;28;20477;-69
2022/08/09 05:38:01;;;;;;;4.13;2.22;;;14.30;99.90;;;;;;5033486;28;20132;-69
2022/08/09 05:40:27;;;;;;;3.00;2.10;;;14.40;99.90;;;;;;5034395;28;20045;-69
2022/08/09 05:42:56;;;;;;;2.88;2.15;;;14.40;99.90;;;;;;5034276;28;20045;-69
2022/08/09 05:45:22;;;;;;;3.92;2.35;;;14.50;99.90;;;;;;5017081;28;20099;-69
2022/08/09 05:47:48;;;;;;;3.15;2.15;;;14.60;99.90;;;;;;5034218;28;20041;-69
2022/08/09 05:50:14;;;;;;;2.72;1.80;;;14.70;99.90;;;;;;5034132;28;20351;-69
2022/08/09 05:52:41;;;;;;;3.17;2.40;;;14.70;99.90;;;;;;5034407;28;20088;-69
2022/08/09 05:55:08;;;;;;;4.32;2.50;;;14.80;99.90;;;;;;5034794;28;20059;-69
2022/08/09 05:57:34;;;;;;;3.53;2.42;;;14.80;99.90;;;;;;5034063;28;20056;-69
2022/08/09 06:00:00;;;;;;;4.05;2.10;;;14.80;99.90;;;;;;5033993;28;20037;-69
2022/08/09 06:02:26;;;;;;;3.85;2.35;;;14.90;99.90;;;;;;5034797;28;20044;-69
2022/08/09 06:04:51;;;;;;;4.18;2.80;;;15.00;99.90;;;;;;5034207;28;20477;-69
2022/08/09 06:07:17;;;;;;;3.22;2.33;;;15.10;99.90;;;;;;5033812;28;20359;-69
2022/08/09 06:09:43;;;;;;;3.55;2.65;;;15.10;99.90;;;;;;5033729;28;20152;-64
2022/08/09 06:12:09;;;;;;;4.38;2.80;;;15.20;99.90;;;;;;5033691;28;20034;-64
2022/08/09 06:14:34;;;;;;;3.90;2.90;;;15.40;99.90;;;;;;5033803;28;20088;-64
2022/08/09 06:17:00;;;;;;;4.93;3.00;;;15.50;99.90;;;;;;5033661;28;20128;-64
2022/08/09 06:19:26;;;;;;;5.05;2.88;;;15.60;99.90;;;;;;5033944;28;20405;-65
2022/08/09 06:21:51;;;;;;;4.53;3.20;;;15.60;99.90;;;;;;5033652;28;20068;-64
2022/08/09 06:24:17;;;;;;;4.32;2.97;;;15.80;99.90;;;;;;5033665;28;20136;-64
2022/08/09 06:26:43;;;;;;;6.80;2.75;;;15.90;99.90;;;;;;5034093;28;20045;-65
2022/08/09 06:29:09;;;;;;;3.58;2.72;;;16.00;99.90;;;;;;5033441;28;20127;-65
2022/08/09 06:31:35;;;;;;;5.03;3.33;;;16.10;99.90;;;;;;5033502;28;20049;-65
2022/08/09 06:34:04;;;;;;;5.57;3.50;;;16.20;99.90;;;;;;5032971;28;20505;-63
2022/08/09 06:36:30;;;;;;;4.22;3.00;;;16.20;99.90;;;;;;5033353;28;20071;-63
2022/08/09 06:38:56;;;;;;;5.00;3.10;;;16.30;99.90;;;;;;5033224;28;20542;-63
2022/08/09 06:41:22;;;;;;;4.90;3.28;;;16.40;99.90;;;;;;5033591;28;20367;-63
2022/08/09 06:43:48;;;;;;;4.97;3.13;;;16.50;99.90;;;;;;5033327;28;20128;-63
2022/08/09 06:46:15;;;;;;;6.07;3.00;;;16.60;99.90;;;;;;5033281;28;20041;-63
2022/08/09 06:48:41;;;;;;;4.30;2.60;;;16.70;99.90;;;;;;5032992;28;20045;-63
2022/08/09 06:51:08;;;;;;;5.35;2.92;;;16.70;99.90;;;;;;5033379;28;20077;-63
2022/08/09 06:53:34;;;;;;;4.88;2.78;;;16.90;99.90;;;;;;5033176;28;20124;-63
2022/08/09 06:56:01;;;;;;;4.35;2.70;;;16.90;99.90;;;;;;5033655;28;20411;-63
2022/08/09 06:58:28;;;;;;;3.90;2.55;;;17.10;99.90;;;;;;5033194;28;20053;-63
2022/08/09 07:00:54;;;;;;;4.97;2.30;;;17.10;99.90;;;;;;5033134;28;20428;-63
2022/08/09 07:03:20;;;;;;;6.85;2.42;;;17.30;99.90;;;;;;5033580;28;20061;-63
2022/08/09 07:05:46;;;;;;;3.47;2.38;;;17.40;99.90;;;;;;5033104;28;20425;-63
2022/08/09 07:08:12;;;;;;;4.68;2.72;;;17.50;99.90;;;;;;5032987;28;20045;-63
2022/08/09 07:10:38;;;;;;;3.45;1.98;;;17.60;99.90;;;;;;5033040;28;20111;-63
2022/08/09 07:13:03;;;;;;;4.32;1.92;;;17.80;99.90;;;;;;5033583;28;20529;-63
2022/08/09 07:15:30;;;;;;;3.83;2.25;;;17.90;99.90;;;;;;5014761;28;20076;-65
2022/08/09 07:17:56;;;;;;;3.95;1.92;;;18.00;99.90;;;;;;5032940;28;20049;-65
2022/08/09 07:20:22;;;;;;;4.53;1.80;;;18.10;99.90;;;;;;5033051;28;20045;-65
2022/08/09 07:22:48;;;;;;;2.80;1.73;;;18.10;99.90;;;;;;5014774;28;20045;-65
2022/08/09 07:25:14;;;;;;;3.47;1.80;;;18.20;99.90;;;;;;5032764;28;20041;-64
2022/08/09 07:27:40;;;;;;;3.22;1.73;;;18.30;99.90;;;;;;5032637;28;20112;-65
2022/08/09 07:30:06;;;;;;;2.80;1.50;;;18.40;99.90;;;;;;5032754;28;20428;-64
2022/08/09 07:32:32;;;;;;;3.75;1.20;;;18.40;99.90;;;;;;5032627;28;20080;-64
2022/08/09 07:34:58;;;;;;;2.10;1.23;;;18.50;99.90;;;;;;5033135;28;20049;-64
2022/08/09 07:37:23;;;;;;;3.03;1.10;;;18.60;99.90;;;;;;5033006;28;20386;-64
2022/08/09 07:39:49;;;;;;;4.78;1.65;;;18.90;99.90;;;;;;5033042;28;20274;-64
2022/08/09 07:42:15;;;;;;;2.65;1.00;;;19.00;99.90;;;;;;5032826;28;20060;-64
2022/08/09 07:44:40;;;;;;;2.15;1.23;;;19.10;99.90;;;;;;5032888;28;20045;-64
2022/08/09 07:47:06;;;;;;;3.00;1.20;;;19.10;99.90;;;;;;5014776;28;20132;-64
2022/08/09 07:49:32;;;;;;;1.63;1.00;;;19.20;99.90;;;;;;5014939;28;20153;-64
2022/08/09 07:51:57;;;;;;;2.78;1.10;;;19.30;99.90;;;;;;5032473;28;20038;-64
2022/08/09 07:54:26;;;;;;;2.50;1.20;;;19.30;99.90;;;;;;5032531;28;20045;-64
2022/08/09 07:56:52;;;;;;;2.83;1.10;;;19.30;99.90;;;;;;5032456;28;20053;-64
2022/08/09 07:59:19;;;;;;;3.00;1.10;;;19.40;99.90;;;;;;5015114;28;20072;-64
2022/08/09 08:01:45;;;;;;;2.25;1.00;;;19.50;99.90;;;;;;5033924;28;20121;-64
2022/08/09 08:04:10;;;;;;;2.00;0.90;;;19.60;99.90;;;;;;5036881;28;20450;-63
2022/08/09 08:06:36;;;;;;;4.13;1.30;;;19.60;99.90;;;;;;5036046;28;20053;-64
2022/08/09 08:09:02;;;;;;;3.25;1.40;;;19.70;99.90;;;;;;5018409;28;20045;-64
2022/08/09 08:11:27;;;;;;;2.17;1.30;;;19.80;99.90;;;;;;5018165;28;20474;-64
2022/08/09 08:13:53;;;;;;;2.33;1.27;;;19.90;99.90;;;;;;5035881;28;20077;-64
2022/08/09 08:16:19;;;;;;;3.42;1.27;;;20.00;99.90;;;;;;5035763;28;20041;-64
2022/08/09 08:18:44;;;;;;;2.85;1.20;;;20.10;99.90;;;;;;5035759;28;20053;-65
2022/08/09 08:21:10;;;;;;;3.63;1.52;;;20.20;99.90;;;;;;5036444;28;20049;-64
2022/08/09 08:23:36;;;;;;;2.28;1.10;;;20.40;99.90;;;;;;5035750;28;20050;-64
2022/08/09 08:26:01;;;;;;;2.63;1.02;;;20.50;99.90;;;;;;5035934;28;20367;-64
2022/08/09 08:28:27;;;;;;;2.88;1.00;;;20.40;99.90;;;;;;5035628;28;20497;-64
2022/08/09 08:30:54;;;;;;;2.15;1.10;;;20.40;99.90;;;;;;5035767;28;20092;-65
2022/08/09 08:33:20;;;;;;;2.28;1.10;;;20.30;99.90;;;;;;5035519;28;20092;-65
2022/08/09 08:35:46;;;;;;;2.30;0.80;;;20.40;99.90;;;;;;5035139;28;20489;-64
2022/08/09 08:38:12;;;;;;;2.08;0.82;;;20.50;99.90;;;;;;5035759;28;20060;-64
2022/08/09 08:40:37;;;;;;;1.48;0.70;;;20.60;99.90;;;;;;5018471;28;20061;-64
2022/08/09 08:43:04;;;;;;;1.70;0.65;;;20.70;99.90;;;;;;5035173;28;20121;-65
2022/08/09 08:45:37;;;;;;;1.65;0.70;;;20.80;99.90;;;;;;5035878;28;20056;-68
2022/08/09 08:48:04;;;;;;;1.10;0.60;;;20.90;99.90;;;;;;5035967;28;20076;-65
2022/08/09 08:50:30;;;;;;;2.33;0.90;;;20.90;99.90;;;;;;5036009;28;20045;-65
2022/08/09 08:52:56;;;;;;;1.35;0.60;;;21.00;99.90;;;;;;5017430;28;20042;-65
2022/08/09 08:55:22;;;;;;;1.92;0.80;;;21.10;99.90;;;;;;5035695;28;20051;-64
2022/08/09 08:57:49;;;;;;;2.00;0.85;;;21.10;99.90;;;;;;5035076;28;20449;-65
2022/08/09 09:00:14;;;;;;;1.30;0.70;;;21.20;99.90;;;;;;5034990;28;20455;-64
2022/08/09 09:02:41;;;;;;;2.95;0.90;;;21.40;99.90;;;;;;5035012;28;20057;-64
2022/08/09 09:05:12;;;;;;;1.85;0.90;;;21.40;99.90;;;;;;5034847;28;20137;-65
2022/08/09 09:07:39;;;;;;;1.50;0.70;;;21.40;99.90;;;;;;5034900;28;20049;-65
2022/08/09 09:10:07;;;;;;;1.40;0.80;;;21.60;99.90;;;;;;5034489;28;20049;-65
2022/08/09 09:12:34;;;;;;;1.90;0.90;;;21.70;99.90;;;;;;5034688;28;20038;-65
2022/08/09 09:15:01;;;;;;;1.77;0.80;;;21.70;99.90;;;;;;5035439;28;20147;-65
2022/08/09 09:17:27;;;;;;;2.97;1.00;;;21.70;99.90;;;;;;5017495;28;20060;-65
2022/08/09 09:19:53;;;;;;;3.15;0.88;;;21.70;99.90;;;;;;5034689;28;20049;-65
2022/08/09 09:22:20;;;;;;;1.92;0.93;;;21.50;99.90;;;;;;5035012;28;20111;-65
2022/08/09 09:24:51;;;;;;;3.60;1.10;;;21.30;99.90;;;;;;5034553;28;20048;-65
2022/08/09 09:27:20;;;;;;;1.70;1.00;;;21.20;99.90;;;;;;5035681;28;20051;-65
2022/08/09 09:29:46;;;;;;;2.20;0.77;;;21.30;99.90;;;;;;5034219;28;20061;-64
2022/08/09 09:32:21;;;;;;;1.90;0.80;;;21.40;99.90;;;;;;5034284;28;20044;-64
2022/08/09 09:35:10;;;;;;;1.77;0.90;;;21.40;99.90;;;;;;5034315;28;20132;-64
2022/08/09 09:37:38;;;;;;;1.48;0.63;;;21.30;99.90;;;;;;5035210;28;20099;-64
2022/08/09 09:40:05;;;;;;;3.05;0.80;;;21.50;99.90;;;;;;5034178;28;20045;-64
2022/08/09 09:42:31;;;;;;;1.63;0.80;;;21.60;99.90;;;;;;5034703;28;20057;-64
2022/08/09 09:44:58;;;;;;;1.50;0.77;;;21.60;99.90;;;;;;5034242;28;20092;-64
2022/08/09 09:47:25;;;;;;;1.92;1.02;;;21.60;99.90;;;;;;5034384;28;20052;-64
2022/08/09 09:49:52;;;;;;;1.60;0.73;;;21.60;99.90;;;;;;5034087;28;20080;-64
2022/08/09 09:52:18;;;;;;;1.30;0.70;;;21.70;99.90;;;;;;5016342;28;20045;-65
2022/08/09 09:54:46;;;;;;;1.88;0.80;;;21.70;99.90;;;;;;5034455;28;20046;-65
2022/08/09 09:57:20;;;;;;;1.23;0.80;;;21.80;99.90;;;;;;5033883;28;20133;-65
2022/08/09 09:59:50;;;;;;;1.48;0.70;;;21.80;99.90;;;;;;5034021;28;20054;-65
2022/08/09 10:02:20;;;;;;;2.75;0.82;;;21.80;99.90;;;;;;5034442;28;20048;-64
2022/08/09 10:05:05;;;;;;;1.65;0.93;;;21.80;99.90;;;;;;5033845;28;20046;-65
2022/08/09 10:07:30;;;;;;;1.33;0.77;;;21.90;99.90;;;;;;5016150;28;20088;-65
2022/08/09 10:09:57;;;;;;;1.17;0.65;;;22.00;99.90;;;;;;5016048;28;20092;-65
2022/08/09 10:12:35;;;;;;;1.70;0.75;;;22.10;99.90;;;;;;5016758;28;20048;-65
2022/08/09 10:15:06;;;;;;;1.77;0.68;;;22.20;99.90;;;;;;5034201;28;20119;-64
2022/08/09 10:17:34;;;;;;;1.50;0.77;;;22.20;99.90;;;;;;5034059;28;20045;-65
2022/08/09 10:20:03;;;;;;;1.40;0.70;;;22.20;99.90;;;;;;5034021;28;20045;-65
2022/08/09 10:22:38;;;;;;;1.27;0.60;;;22.20;99.90;;;;;;5033482;28;20492;-65
2022/08/09 10:25:07;;;;;;;1.10;0.50;;;22.30;99.90;;;;;;5016061;28;20050;-65
2022/08/09 10:27:33;;;;;;;1.60;0.70;;;22.40;99.90;;;;;;5033416;28;20498;-65
2022/08/09 10:30:01;;;;;;;1.58;0.70;;;22.40;99.90;;;;;;5033138;28;20091;-65
2022/08/09 10:32:27;;;;;;;1.23;0.63;;;22.40;99.90;;;;;;5033152;28;20168;-65
2022/08/09 10:34:54;;;;;;;1.65;0.82;;;22.40;99.90;;;;;;5033336;28;20503;-65
2022/08/09 10:37:20;;;;;;;1.38;0.60;;;22.40;99.90;;;;;;5032857;28;20521;-65
2022/08/09 10:39:46;;;;;;;0.95;0.77;;;22.40;99.90;;;;;;5032601;28;20049;-65
2022/08/09 10:42:14;;;;;;;1.73;0.60;;;22.40;99.90;;;;;;5033274;28;20437;-65
2022/08/09 10:44:43;;;;;;;1.00;0.52;;;22.40;99.90;;;;;;5033234;28;20488;-65
2022/08/09 10:47:33;;;;;;;1.67;0.50;;;22.30;99.90;;;;;;5033225;28;20049;-65
2022/08/09 10:50:11;;;;;;;1.17;0.60;;;22.40;99.90;;;;;;5033667;28;20045;-65
2022/08/09 10:52:37;;;;;;;1.25;0.65;;;22.50;99.90;;;;;;5032943;28;20041;-65
2022/08/09 10:55:26;;;;;;;1.13;0.60;;;22.50;99.90;;;;;;5033173;28;20046;-65
2022/08/09 10:57:54;;;;;;;2.75;0.50;;;22.50;99.90;;;;;;5015847;28;20056;-65
2022/08/09 11:00:32;;;;;;;0.80;0.50;;;22.50;99.90;;;;;;5033002;28;20045;-65
2022/08/09 11:02:58;;;;;;;1.88;0.70;;;22.60;99.90;;;;;;5033278;28;20490;-65
2022/08/09 11:05:26;;;;;;;1.35;0.60;;;22.70;99.90;;;;;;5032904;28;20053;-65
2022/08/09 11:07:52;;;;;;;1.25;0.70;;;22.70;99.90;;;;;;5033332;28;20526;-65
2022/08/09 11:10:42;;;;;;;1.80;0.65;;;22.70;99.90;;;;;;5032885;28;20077;-65
2022/08/09 11:13:13;;;;;;;3.05;0.77;;;22.80;99.90;;;;;;5032378;28;20049;-65
2022/08/09 11:15:39;;;;;;;0.90;0.52;;;22.80;99.90;;;;;;5016224;28;20095;-65
2022/08/09 11:18:05;;;;;;;1.15;0.60;;;22.90;99.90;;;;;;4966937;28;20077;-65
2022/08/09 11:20:46;;;;;;;2.20;0.70;;;22.90;99.90;;;;;;5032870;28;20053;-66
2022/08/09 11:23:13;;;;;;;0.90;0.50;;;22.90;99.90;;;;;;5032913;28;20088;-65
2022/08/09 11:25:41;;;;;;;1.00;0.60;;;22.80;99.90;;;;;;5015880;28;20386;-65
2022/08/09 11:28:32;;;;;;;1.40;0.60;;;22.80;99.90;;;;;;5033594;28;20045;-65
2022/08/09 11:30:58;;;;;;;1.10;0.60;;;22.90;99.90;;;;;;5033348;28;20057;-65
2022/08/09 11:33:44;;;;;;;1.25;0.60;;;22.90;99.90;;;;;;5032807;28;20137;-65
2022/08/09 11:36:13;;;;;;;1.15;0.60;;;23.00;99.90;;;;;;5017061;28;20473;-65
2022/08/09 11:38:38;;;;;;;1.70;0.60;;;23.20;99.90;;;;;;5019215;28;20045;-65
2022/08/09 11:41:13;;;;;;;1.17;0.60;;;23.20;99.90;;;;;;5036558;28;20055;-65
2022/08/09 11:43:47;;;;;;;0.90;0.52;;;23.10;99.90;;;;;;5036915;28;20045;-65
2022/08/09 11:46:13;;;;;;;1.58;0.60;;;23.20;99.90;;;;;;5036377;28;20053;-65
2022/08/09 11:48:51;;;;;;;1.00;0.60;;;23.20;99.90;;;;;;5036964;28;20053;-65
2022/08/09 11:51:18;;;;;;;1.42;0.60;;;23.30;99.90;;;;;;5037134;28;20045;-65
2022/08/09 11:53:43;;;;;;;0.63;0.40;;;23.30;99.90;;;;;;5018654;28;20088;-65
2022/08/09 11:56:15;;;;;;;0.90;0.40;;;23.30;99.90;;;;;;5036885;28;20054;-65
2022/08/09 11:58:41;;;;;;;1.10;0.60;;;23.30;99.90;;;;;;5036292;28;20057;-65
2022/08/09 12:01:07;;;;;;;0.95;0.50;;;23.40;99.90;;;;;;5035927;28;20049;-65
2022/08/09 12:03:33;;;;;;;1.10;0.60;;;23.30;99.90;;;;;;5036168;28;20045;-65
2022/08/09 12:06:07;;;;;;;1.20;0.68;;;23.40;99.90;;;;;;5036636;28;20058;-65
2022/08/09 12:08:33;;;;;;;2.17;0.65;;;23.40;99.90;;;;;;5036353;28;20139;-65
2022/08/09 12:11:00;;;;;;;2.17;0.70;;;23.40;99.90;;;;;;5036533;28;20049;-65
2022/08/09 12:13:41;;;;;;;1.65;0.70;;;23.40;99.90;;;;;;5036478;28;20049;-65
2022/08/09 12:16:09;;;;;;;1.30;0.60;;;23.60;99.90;;;;;;5002389;28;20061;-65
2022/08/09 12:18:38;;;;;;;1.25;0.68;;;23.50;99.90;;;;;;5036449;28;20236;-65
2022/08/09 12:21:07;;;;;;;1.95;0.60;;;23.50;99.90;;;;;;5036128;28;20402;-65
2022/08/09 12:23:40;;;;;;;1.20;0.60;;;23.50;99.90;;;;;;5035840;28;20037;-65
2022/08/09 12:26:06;;;;;;;1.38;0.60;;;23.50;99.90;;;;;;5036049;28;20118;-65
2022/08/09 12:28:33;;;;;;;1.40;0.50;;;23.60;99.90;;;;;;5036277;28;20430;-65
2022/08/09 12:30:59;;;;;;;4.82;0.70;;;23.60;99.90;;;;;;5036157;28;20458;-65
2022/08/09 12:33:26;;;;;;;0.90;0.50;;;23.60;99.90;;;;;;5018253;28;20142;-65
2022/08/09 12:36:04;;;;;;;1.50;0.50;;;23.70;99.90;;;;;;5035814;28;20052;-66
2022/08/09 12:38:32;;;;;;;1.63;0.55;;;23.90;99.90;;;;;;5034342;28;20054;-65
2022/08/09 12:40:58;;;;;;;0.73;0.40;;;23.90;99.90;;;;;;5036286;28;20060;-65
2022/08/09 12:43:25;;;;;;;1.27;0.60;;;23.90;99.90;;;;;;5035911;28;20053;-65
2022/08/09 12:45:54;;;;;;;0.95;0.55;;;23.90;99.90;;;;;;5017922;28;20057;-65
2022/08/09 12:48:21;;;;;;;1.25;0.73;;;23.90;99.90;;;;;;5035210;28;20204;-65
2022/08/09 12:50:48;;;;;;;0.98;0.50;;;24.00;99.90;;;;;;5035872;28;20056;-65
2022/08/09 12:53:38;;;;;;;2.03;0.50;;;24.10;99.90;;;;;;5017474;28;20476;-65
2022/08/09 12:56:17;;;;;;;0.77;0.50;;;24.10;99.90;;;;;;5035157;28;20069;-65